createdAt,value
2023-05-20T00:00:31.000Z,991.61
2023-05-20T00:05:25.000Z,991.61
2023-05-20T00:10:19.000Z,991.55
2023-05-20T00:15:14.000Z,991.53
2023-05-20T00:20:08.000Z,991.55
2023-05-20T00:25:03.000Z,991.45
2023-05-20T00:29:57.000Z,991.45
2023-05-20T00:34:52.000Z,991.40
2023-05-20T00:39:46.000Z,991.38
2023-05-20T00:44:41.000Z,991.36
2023-05-20T00:49:35.000Z,991.42
2023-05-20T00:54:28.000Z,991.41
2023-05-20T00:59:23.000Z,991.42
2023-05-20T01:04:16.000Z,991.37
2023-05-20T01:09:10.000Z,991.34
2023-05-20T01:14:04.000Z,991.32
2023-05-20T01:18:58.000Z,991.32
2023-05-20T01:23:52.000Z,991.25
2023-05-20T01:28:47.000Z,991.32
2023-05-20T01:33:41.000Z,991.21
2023-05-20T01:38:35.000Z,991.25
2023-05-20T01:43:28.000Z,991.17
2023-05-20T01:48:22.000Z,991.22
2023-05-20T01:53:16.000Z,991.14
2023-05-20T01:58:10.000Z,991.15
2023-05-20T02:03:04.000Z,991.17
2023-05-20T02:07:58.000Z,991.12
2023-05-20T02:12:53.000Z,991.19
2023-05-20T02:17:47.000Z,991.12
2023-05-20T02:22:42.000Z,991.20
2023-05-20T02:27:36.000Z,991.17
2023-05-20T02:32:31.000Z,991.06
2023-05-20T02:37:25.000Z,991.12
2023-05-20T02:42:19.000Z,991.00
2023-05-20T02:47:12.000Z,990.98
2023-05-20T02:52:07.000Z,990.89
2023-05-20T02:57:01.000Z,990.91
2023-05-20T03:01:56.000Z,990.90
2023-05-20T03:06:50.000Z,990.85
2023-05-20T03:11:45.000Z,990.84
2023-05-20T03:16:39.000Z,990.87
2023-05-20T03:21:33.000Z,990.87
2023-05-20T03:26:28.000Z,990.94
2023-05-20T03:31:22.000Z,990.90
2023-05-20T03:36:16.000Z,990.92
2023-05-20T03:41:10.000Z,990.94
2023-05-20T03:46:04.000Z,991.00
2023-05-20T03:50:58.000Z,990.75
2023-05-20T03:55:53.000Z,990.86
2023-05-20T04:00:47.000Z,990.90
2023-05-20T04:05:40.000Z,990.94
2023-05-20T04:10:34.000Z,990.90
2023-05-20T04:15:29.000Z,990.94
2023-05-20T04:20:23.000Z,990.86
2023-05-20T04:25:18.000Z,990.89
2023-05-20T04:30:12.000Z,990.87
2023-05-20T04:35:07.000Z,990.89
2023-05-20T04:40:01.000Z,990.90
2023-05-20T04:44:55.000Z,990.90
2023-05-20T04:49:50.000Z,990.95
2023-05-20T04:54:43.000Z,990.91
2023-05-20T04:59:37.000Z,990.89
2023-05-20T05:04:29.000Z,990.81
2023-05-20T05:09:23.000Z,990.82
2023-05-20T05:14:18.000Z,990.72
2023-05-20T05:19:12.000Z,990.81
2023-05-20T05:24:06.000Z,990.83
2023-05-20T05:29:00.000Z,990.76
2023-05-20T05:33:55.000Z,990.72
2023-05-20T05:38:49.000Z,990.71
2023-05-20T05:43:43.000Z,990.75
2023-05-20T05:48:38.000Z,990.74
2023-05-20T05:53:31.000Z,990.67
2023-05-20T05:58:27.000Z,990.81
2023-05-20T06:03:20.000Z,990.71
2023-05-20T06:08:15.000Z,990.71
2023-05-20T06:13:09.000Z,990.72
2023-05-20T06:18:04.000Z,990.56
2023-05-20T06:22:58.000Z,990.52
2023-05-20T06:27:52.000Z,990.58
2023-05-20T06:32:46.000Z,990.60
2023-05-20T06:37:40.000Z,990.48
2023-05-20T06:42:35.000Z,990.38
2023-05-20T06:47:29.000Z,990.45
2023-05-20T06:52:23.000Z,990.41
2023-05-20T06:57:18.000Z,990.35
2023-05-20T07:02:12.000Z,990.40
2023-05-20T07:07:06.000Z,990.35
2023-05-20T07:12:01.000Z,990.36
2023-05-20T07:16:56.000Z,990.37
2023-05-20T07:21:50.000Z,990.40
2023-05-20T07:26:45.000Z,990.32
2023-05-20T07:31:37.000Z,990.51
2023-05-20T07:36:32.000Z,990.43
2023-05-20T07:41:26.000Z,990.41
2023-05-20T07:46:20.000Z,990.36
2023-05-20T07:51:15.000Z,990.38
2023-05-20T07:56:09.000Z,990.33
2023-05-20T08:01:03.000Z,990.20
2023-05-20T08:05:58.000Z,990.28
2023-05-20T08:10:53.000Z,990.24
2023-05-20T08:15:47.000Z,990.22
2023-05-20T08:20:41.000Z,990.18
2023-05-20T08:25:36.000Z,990.17
2023-05-20T08:30:30.000Z,990.19
2023-05-20T08:35:25.000Z,990.22
2023-05-20T08:40:20.000Z,990.12
2023-05-20T08:45:15.000Z,990.07
2023-05-20T08:50:08.000Z,990.13
2023-05-20T08:55:03.000Z,990.10
2023-05-20T08:59:57.000Z,990.04
2023-05-20T09:04:52.000Z,990.02
2023-05-20T09:09:46.000Z,990.14
2023-05-20T09:14:39.000Z,989.97
2023-05-20T09:19:34.000Z,990.07
2023-05-20T09:24:28.000Z,990.11
2023-05-20T09:29:22.000Z,990.03
2023-05-20T09:34:17.000Z,990.00
2023-05-20T09:39:11.000Z,990.08
2023-05-20T09:44:06.000Z,990.08
2023-05-20T09:49:00.000Z,990.09
2023-05-20T09:53:55.000Z,989.94
2023-05-20T09:58:49.000Z,989.97
2023-05-20T10:03:43.000Z,990.11
2023-05-20T10:08:37.000Z,989.98
2023-05-20T10:13:31.000Z,990.13
2023-05-20T10:18:26.000Z,989.95
2023-05-20T10:23:21.000Z,989.89
2023-05-20T10:28:15.000Z,989.81
2023-05-20T10:33:10.000Z,989.89
2023-05-20T10:38:03.000Z,989.85
2023-05-20T10:42:57.000Z,989.88
2023-05-20T10:47:52.000Z,989.79
2023-05-20T10:52:47.000Z,989.75
2023-05-20T10:57:43.000Z,989.78
2023-05-20T11:02:38.000Z,989.80
2023-05-20T11:07:32.000Z,989.75
2023-05-20T11:12:25.000Z,989.79
2023-05-20T11:17:19.000Z,989.76
2023-05-20T11:22:13.000Z,989.72
2023-05-20T11:27:07.000Z,989.81
2023-05-20T11:32:00.000Z,989.75
2023-05-20T11:36:54.000Z,989.78
2023-05-20T11:41:49.000Z,989.67
2023-05-20T11:46:43.000Z,989.66
2023-05-20T11:51:38.000Z,989.57
2023-05-20T11:56:31.000Z,989.46
2023-05-20T12:01:26.000Z,989.51
2023-05-20T12:06:20.000Z,989.51
2023-05-20T12:11:14.000Z,989.39
2023-05-20T12:16:08.000Z,989.43
2023-05-20T12:21:03.000Z,989.33
2023-05-20T12:25:57.000Z,989.23
2023-05-20T12:30:52.000Z,989.14
2023-05-20T12:35:46.000Z,989.12
2023-05-20T12:40:42.000Z,989.13
2023-05-20T12:45:37.000Z,989.11
2023-05-20T12:50:33.000Z,989.06
2023-05-20T12:55:28.000Z,988.91
2023-05-20T13:00:23.000Z,988.96
2023-05-20T13:05:18.000Z,988.93
2023-05-20T13:10:12.000Z,988.89
2023-05-20T13:15:05.000Z,988.90
2023-05-20T13:19:59.000Z,988.88
2023-05-20T13:24:52.000Z,988.75
2023-05-20T13:29:46.000Z,988.79
2023-05-20T13:34:41.000Z,988.75
2023-05-20T13:39:34.000Z,988.69
2023-05-20T13:44:28.000Z,988.73
2023-05-20T13:49:23.000Z,988.65
2023-05-20T13:54:17.000Z,988.58
2023-05-20T13:59:10.000Z,988.53
2023-05-20T14:04:03.000Z,988.64
2023-05-20T14:08:57.000Z,988.55
2023-05-20T14:13:51.000Z,988.60
2023-05-20T14:18:44.000Z,988.65
2023-05-20T14:23:38.000Z,988.56
2023-05-20T14:28:32.000Z,988.53
2023-05-20T14:33:25.000Z,988.46
2023-05-20T14:38:18.000Z,988.56
2023-05-20T14:43:13.000Z,988.38
2023-05-20T14:48:07.000Z,988.51
2023-05-20T14:53:01.000Z,988.40
2023-05-20T14:57:56.000Z,988.45
2023-05-20T15:02:50.000Z,988.50
2023-05-20T15:07:44.000Z,988.42
2023-05-20T15:12:38.000Z,988.45
2023-05-20T15:17:33.000Z,988.41
2023-05-20T15:22:28.000Z,988.37
2023-05-20T15:27:22.000Z,988.39
2023-05-20T15:32:17.000Z,988.44
2023-05-20T15:37:12.000Z,988.42
2023-05-20T15:42:07.000Z,988.40
2023-05-20T15:47:02.000Z,988.34
2023-05-20T15:51:58.000Z,988.25
2023-05-20T15:56:53.000Z,988.33
2023-05-20T16:01:47.000Z,988.30
2023-05-20T16:06:42.000Z,988.31
2023-05-20T16:11:35.000Z,988.25
2023-05-20T16:16:30.000Z,988.21
2023-05-20T16:21:22.000Z,988.19
2023-05-20T16:26:16.000Z,988.05
2023-05-20T16:31:08.000Z,988.10
2023-05-20T16:36:02.000Z,988.10
2023-05-20T16:40:57.000Z,988.05
2023-05-20T16:45:50.000Z,988.31
2023-05-20T16:50:44.000Z,988.28
2023-05-20T16:55:39.000Z,988.13
2023-05-20T17:00:34.000Z,988.21
2023-05-20T17:05:28.000Z,988.08
2023-05-20T17:10:23.000Z,988.13
2023-05-20T17:15:15.000Z,988.21
2023-05-20T17:20:09.000Z,988.29
2023-05-20T17:25:03.000Z,988.38
2023-05-20T17:29:56.000Z,988.41
2023-05-20T17:34:50.000Z,988.45
2023-05-20T17:39:44.000Z,988.40
2023-05-20T17:44:39.000Z,988.39
2023-05-20T17:49:33.000Z,988.38
2023-05-20T17:54:27.000Z,988.40
2023-05-20T17:59:21.000Z,988.48
2023-05-20T18:04:15.000Z,988.48
2023-05-20T18:09:09.000Z,988.49
2023-05-20T18:14:03.000Z,988.41
2023-05-20T18:18:58.000Z,988.41
2023-05-20T18:23:53.000Z,988.36
2023-05-20T18:28:47.000Z,988.37
2023-05-20T18:33:41.000Z,988.37
2023-05-20T18:38:35.000Z,988.45
2023-05-20T18:43:29.000Z,988.42
2023-05-20T18:48:23.000Z,988.47
2023-05-20T18:53:17.000Z,988.49
2023-05-20T18:58:11.000Z,988.53
2023-05-20T19:03:06.000Z,988.51
2023-05-20T19:08:00.000Z,988.55
2023-05-20T19:12:54.000Z,988.58
2023-05-20T19:17:48.000Z,988.62
2023-05-20T19:22:39.000Z,988.55
2023-05-20T19:27:33.000Z,988.64
2023-05-20T19:32:27.000Z,988.69
2023-05-20T19:37:22.000Z,988.68
2023-05-20T19:42:16.000Z,988.66
2023-05-20T19:47:11.000Z,988.75
2023-05-20T19:52:05.000Z,988.71
2023-05-20T19:56:58.000Z,988.71
2023-05-20T20:01:53.000Z,988.59
2023-05-20T20:06:47.000Z,988.67
2023-05-20T20:11:41.000Z,988.61
2023-05-20T20:16:34.000Z,988.46
2023-05-20T20:21:29.000Z,988.42
2023-05-20T20:26:23.000Z,988.52
2023-05-20T20:31:17.000Z,988.52
2023-05-20T20:36:12.000Z,988.49
2023-05-20T20:41:05.000Z,988.40
2023-05-20T20:46:00.000Z,988.42
2023-05-20T20:50:54.000Z,988.43
2023-05-20T20:55:48.000Z,988.30
2023-05-20T21:00:42.000Z,988.24
2023-05-20T21:05:36.000Z,988.24
2023-05-20T21:10:31.000Z,988.19
2023-05-20T21:15:25.000Z,988.13
2023-05-20T21:20:20.000Z,988.16
2023-05-20T21:25:14.000Z,988.13
2023-05-20T21:30:09.000Z,988.03
2023-05-20T21:35:03.000Z,988.10
2023-05-20T21:39:56.000Z,988.06
2023-05-20T21:44:50.000Z,987.96
2023-05-20T21:49:44.000Z,988.01
2023-05-20T21:54:39.000Z,987.96
2023-05-20T21:59:34.000Z,987.86
2023-05-20T22:04:27.000Z,987.81
2023-05-20T22:09:21.000Z,987.81
2023-05-20T22:14:15.000Z,987.82
2023-05-20T22:19:10.000Z,987.72
2023-05-20T22:24:04.000Z,987.58
2023-05-20T22:28:58.000Z,987.63
2023-05-20T22:33:53.000Z,987.56
2023-05-20T22:38:47.000Z,987.59
2023-05-20T22:43:41.000Z,987.52
2023-05-20T22:48:35.000Z,987.51
2023-05-20T22:53:30.000Z,987.43
2023-05-20T22:58:24.000Z,987.39
2023-05-20T23:03:19.000Z,987.33
2023-05-20T23:08:14.000Z,987.31
2023-05-20T23:13:08.000Z,987.27
2023-05-20T23:18:02.000Z,987.19
2023-05-20T23:22:57.000Z,987.13
2023-05-20T23:27:51.000Z,987.11
2023-05-20T23:32:44.000Z,987.02
2023-05-20T23:37:39.000Z,986.97
2023-05-20T23:42:33.000Z,986.98
2023-05-20T23:47:28.000Z,987.00
2023-05-20T23:52:22.000Z,986.94
2023-05-20T23:57:15.000Z,986.88
